createdAt,value
2023-01-17T20:38:11.314Z,1.80
2023-01-17T20:40:41.446Z,1.80
2023-01-17T20:43:10.256Z,1.70
2023-01-17T20:45:37.189Z,1.70
2023-01-17T20:48:04.944Z,1.70
2023-01-17T20:50:32.324Z,1.60
2023-01-17T20:52:59.161Z,1.60
2023-01-17T20:55:26.059Z,1.60
2023-01-17T20:57:52.871Z,1.60
2023-01-17T21:00:20.055Z,1.60
2023-01-17T21:02:46.994Z,1.60
2023-01-17T21:05:14.568Z,1.60
2023-01-17T21:07:42.393Z,1.60
2023-01-17T21:10:09.795Z,1.50
2023-01-17T21:12:36.631Z,1.50
2023-01-17T21:15:03.730Z,1.50
2023-01-17T21:17:30.708Z,1.50
2023-01-17T21:19:57.949Z,1.60
2023-01-17T21:22:29.822Z,1.60
2023-01-17T21:24:58.055Z,1.60
2023-01-17T21:27:25.211Z,1.60
2023-01-17T21:29:53.641Z,1.60
2023-01-17T21:32:40.582Z,1.60
2023-01-17T21:35:07.902Z,1.50
2023-01-17T21:37:36.192Z,1.50
2023-01-17T21:40:05.199Z,1.50
2023-01-17T21:42:37.381Z,1.50
2023-01-17T21:45:04.639Z,1.50
2023-01-17T21:47:31.999Z,1.50
2023-01-17T21:49:58.959Z,1.50
2023-01-17T21:53:29.017Z,1.50
2023-01-17T21:56:20.158Z,1.50
2023-01-17T21:58:53.669Z,1.60
2023-01-17T22:02:24.127Z,1.50
2023-01-17T22:04:51.468Z,1.50
2023-01-17T22:07:18.539Z,1.40
2023-01-17T22:09:45.664Z,1.40
2023-01-17T22:12:12.718Z,1.40
2023-01-17T22:14:40.413Z,1.40
2023-01-17T22:17:07.725Z,1.30
2023-01-17T22:19:34.909Z,1.40
2023-01-17T22:22:02.742Z,1.40
2023-01-17T22:24:30.069Z,1.40
2023-01-17T22:26:58.592Z,1.40
2023-01-17T22:29:40.352Z,1.40
2023-01-17T22:32:08.245Z,1.40
2023-01-17T22:34:35.854Z,1.50
2023-01-17T22:37:05.706Z,1.30
2023-01-17T22:39:33.029Z,1.40
2023-01-17T22:42:01.857Z,1.30
2023-01-17T22:44:29.270Z,1.40
2023-01-17T22:47:01.958Z,1.40
2023-01-17T22:49:32.205Z,1.40
2023-01-17T22:52:58.148Z,1.40
2023-01-17T22:55:29.482Z,1.50
2023-01-17T22:58:24.811Z,1.30
2023-01-17T23:02:16.438Z,1.40
2023-01-17T23:04:57.792Z,1.30
2023-01-17T23:07:50.963Z,1.30
2023-01-17T23:10:43.268Z,1.20
2023-01-17T23:13:13.951Z,1.20
2023-01-17T23:16:08.717Z,1.20
2023-01-17T23:19:02.253Z,1.20
2023-01-17T23:22:13.397Z,1.20
2023-01-17T23:24:57.752Z,1.20
2023-01-17T23:27:56.478Z,1.20
2023-01-17T23:30:47.552Z,1.20
2023-01-17T23:33:17.131Z,1.20
2023-01-17T23:35:46.556Z,1.20
2023-01-17T23:38:28.761Z,1.10
2023-01-17T23:41:26.028Z,1.10
2023-01-17T23:43:57.674Z,1.10
2023-01-17T23:46:26.418Z,1.00
2023-01-17T23:48:55.011Z,1.00
2023-01-17T23:51:41.909Z,0.90
2023-01-17T23:54:09.448Z,0.90
2023-01-17T23:56:38.326Z,0.90
2023-01-17T23:59:08.245Z,0.90
